Time;durP1;ratioP1;P1;durP2;ratioP2;P2;SDS_P1;SDS_P2;PMS_P1;PMS_P2;Temp;Humidity;BMP_temperature;BMP_pressure;BME280_temperature;BME280_humidity;BME280_pressure;Samples;Min_cycle;Max_cycle;Signal;HPM_P1;HPM_P2
2023/04/01 00:00:37;;;;;;;1.33;1.25;;;5.20;99.90;;;;;;2076894;28;20209;-61
2023/04/01 00:01:43;;;;;;;0.88;0.88;;;5.20;99.90;;;;;;2076090;28;20178;-60
2023/04/01 00:02:48;;;;;;;12.32;11.60;;;5.20;99.90;;;;;;2076809;28;20231;-59
2023/04/01 00:03:54;;;;;;;0.60;0.50;;;5.10;99.90;;;;;;2076828;28;20684;-59
2023/04/01 00:05:00;;;;;;;3.80;2.45;;;5.10;99.90;;;;;;2077579;28;21460;-59
2023/04/01 00:06:03;;;;;;;6.07;5.78;;;5.10;99.90;;;;;;2077294;28;20177;-60
2023/04/01 00:07:10;;;;;;;0.88;0.88;;;5.10;99.90;;;;;;2076813;28;20185;-59
2023/04/01 00:08:16;;;;;;;0.60;0.40;;;5.10;99.90;;;;;;2076230;28;20262;-60
2023/04/01 00:09:22;;;;;;;7.38;6.97;;;5.10;99.90;;;;;;2076524;28;20268;-60
2023/04/01 00:10:28;;;;;;;3.55;3.35;;;5.10;99.90;;;;;;2076636;28;20211;-59
2023/04/01 00:11:33;;;;;;;3.90;3.60;;;5.10;99.90;;;;;;2074907;28;20182;-59
2023/04/01 00:12:40;;;;;;;0.50;0.45;;;5.00;99.90;;;;;;2076003;28;20200;-60
2023/04/01 00:13:46;;;;;;;1.70;1.67;;;5.10;99.90;;;;;;2076547;28;20890;-58
2023/04/01 00:14:52;;;;;;;1.73;1.73;;;5.10;99.90;;;;;;2077034;28;20614;-58
2023/04/01 00:15:58;;;;;;;3.15;1.90;;;5.10;99.90;;;;;;2077136;28;20216;-58
2023/04/01 00:17:04;;;;;;;0.88;0.88;;;5.10;99.90;;;;;;2078356;28;20249;-60
2023/04/01 00:18:09;;;;;;;17.17;16.33;;;5.10;99.90;;;;;;2078439;28;20268;-59
2023/04/01 00:19:15;;;;;;;1.48;1.27;;;5.00;99.90;;;;;;2078666;28;20203;-60
2023/04/01 00:20:21;;;;;;;1.55;1.45;;;5.00;99.90;;;;;;2079003;28;20255;-59
2023/04/01 00:21:26;;;;;;;9.60;9.15;;;5.00;99.90;;;;;;2077936;28;20193;-59
2023/04/01 00:22:33;;;;;;;5.38;5.07;;;5.00;99.90;;;;;;2078031;28;20196;-58
2023/04/01 00:23:39;;;;;;;2.42;2.22;;;5.00;99.90;;;;;;2077536;28;20220;-60
2023/04/01 00:24:45;;;;;;;11.35;0.60;;;5.00;99.90;;;;;;2078413;28;20185;-59
2023/04/01 00:25:50;;;;;;;0.88;0.88;;;5.00;99.90;;;;;;2078308;28;20177;-58
2023/04/01 00:26:56;;;;;;;3.80;3.60;;;5.00;99.90;;;;;;2078579;28;20234;-60
2023/04/01 00:28:02;;;;;;;0.55;0.55;;;5.00;99.90;;;;;;2078373;28;20189;-59
2023/04/01 00:29:04;;;;;;;0.40;0.40;;;5.00;99.90;;;;;;2078453;28;20190;-58
2023/04/01 00:30:09;;;;;;;3.05;2.95;;;5.00;99.90;;;;;;2078201;28;20186;-60
2023/04/01 00:31:15;;;;;;;0.40;0.40;;;5.00;99.90;;;;;;2078179;28;20651;-59
2023/04/01 00:32:21;;;;;;;10.38;9.82;;;5.00;99.90;;;;;;2077242;28;20644;-59
2023/04/01 00:33:27;;;;;;;1.70;1.60;;;5.00;99.90;;;;;;2078430;28;20199;-60
2023/04/01 00:34:33;;;;;;;0.95;0.40;;;5.00;99.90;;;;;;2078285;28;20267;-60
2023/04/01 00:35:39;;;;;;;0.75;0.75;;;5.00;99.90;;;;;;2078343;28;20192;-61
2023/04/01 00:36:44;;;;;;;0.30;0.30;;;5.00;99.90;;;;;;2078244;28;20363;-60
2023/04/01 00:37:50;;;;;;;0.60;0.60;;;5.00;99.90;;;;;;2078431;28;20189;-59
2023/04/01 00:38:58;;;;;;;1.48;1.48;;;5.10;99.90;;;;;;2078247;28;20208;-60
2023/04/01 00:40:07;;;;;;;3.70;3.50;;;5.10;99.90;;;;;;2077956;28;20185;-60
2023/04/01 00:41:14;;;;;;;3.28;3.10;;;5.00;99.90;;;;;;2078164;28;20196;-60
2023/04/01 00:42:20;;;;;;;4.43;4.20;;;4.90;99.90;;;;;;2077304;28;20185;-59
2023/04/01 00:43:25;;;;;;;0.43;0.43;;;4.90;99.90;;;;;;2075303;28;20232;-60
2023/04/01 00:44:34;;;;;;;10.43;9.82;;;4.90;99.90;;;;;;2078113;28;20284;-60
2023/04/01 00:45:42;;;;;;;1.40;1.30;;;4.90;99.90;;;;;;2078103;28;20650;-60
2023/04/01 00:46:49;;;;;;;7.38;7.00;;;4.90;99.90;;;;;;2078106;28;20669;-58
2023/04/01 00:47:56;;;;;;;9.27;8.85;;;4.90;99.90;;;;;;2078382;28;20201;-61
2023/04/01 00:49:02;;;;;;;5.82;5.50;;;5.00;99.90;;;;;;2077498;28;20221;-60
2023/04/01 00:50:05;;;;;;;13.27;12.57;;;4.90;99.90;;;;;;2077663;28;20182;-61
2023/04/01 00:51:18;;;;;;;0.73;0.57;;;4.90;99.90;;;;;;2078797;28;20185;-60
2023/04/01 00:52:25;;;;;;;6.05;5.80;;;4.90;99.90;;;;;;2080084;28;20188;-60
2023/04/01 00:53:34;;;;;;;0.90;0.60;;;4.90;99.90;;;;;;2078048;28;20185;-58
2023/04/01 00:54:45;;;;;;;1.15;0.80;;;4.90;99.90;;;;;;2077525;28;20200;-60
2023/04/01 00:56:04;;;;;;;4.88;4.65;;;4.90;99.90;;;;;;2071353;28;20185;-61
2023/04/01 00:57:15;;;;;;;2.17;0.63;;;4.90;99.90;;;;;;2064155;28;20190;-60
2023/04/01 00:58:24;;;;;;;1.05;0.88;;;4.90;99.90;;;;;;2065544;28;20248;-60
2023/04/01 00:59:44;;;;;;;3.15;2.72;;;5.00;99.90;;;;;;2077586;28;20189;-61
2023/04/01 01:00:51;;;;;;;3.30;0.70;;;5.00;99.90;;;;;;2079729;28;20203;-63
2023/04/01 01:01:57;;;;;;;1.00;0.57;;;5.00;99.90;;;;;;2074403;28;20186;-59
2023/04/01 01:03:02;;;;;;;0.50;0.50;;;5.10;99.90;;;;;;2077531;28;20181;-60
2023/04/01 01:04:04;;;;;;;4.95;4.63;;;5.00;99.90;;;;;;2078202;28;20205;-59
2023/04/01 01:05:14;;;;;;;1.60;0.60;;;5.10;99.90;;;;;;2078000;28;20631;-58
2023/04/01 01:06:41;;;;;;;5.07;4.78;;;5.10;99.90;;;;;;2078355;28;20184;-61
2023/04/01 01:08:07;;;;;;;1.45;1.35;;;5.10;99.90;;;;;;2078028;28;20177;-61
2023/04/01 01:09:30;;;;;;;4.85;4.55;;;5.10;99.90;;;;;;2077707;28;20188;-57
2023/04/01 01:10:39;;;;;;;2.60;1.55;;;5.10;99.90;;;;;;2073056;28;20239;-60
2023/04/01 01:11:51;;;;;;;2.10;1.17;;;5.20;99.90;;;;;;2076812;28;20189;-60
2023/04/01 01:12:56;;;;;;;11.32;10.68;;;5.20;99.90;;;;;;2078095;28;20655;-61
2023/04/01 01:14:48;;;;;;;21.85;20.63;;;5.20;99.90;;;;;;2078109;28;20221;-61
2023/04/01 01:16:11;;;;;;;1.80;1.70;;;5.20;99.90;;;;;;2076320;28;20193;-61
2023/04/01 01:18:09;;;;;;;8.10;7.70;;;5.20;99.90;;;;;;2073878;28;20173;-60
2023/04/01 01:20:07;;;;;;;0.82;0.60;;;5.10;99.90;;;;;;2041268;29;20204;-60
2023/04/01 01:21:38;;;;;;;5.88;5.47;;;5.20;99.90;;;;;;2031430;29;20708;-61
2023/04/01 01:23:13;;;;;;;4.38;0.60;;;5.20;99.90;;;;;;2044645;29;20188;-59
2023/04/01 01:24:46;;;;;;;2.45;0.85;;;5.20;99.90;;;;;;2053982;28;20357;-59
2023/04/01 01:25:57;;;;;;;10.75;10.05;;;5.20;99.90;;;;;;2079489;28;20231;-60
2023/04/01 01:27:10;;;;;;;3.45;3.13;;;5.10;99.90;;;;;;2078102;28;20186;-59
2023/04/01 01:28:44;;;;;;;4.63;1.98;;;5.10;99.90;;;;;;2078861;28;20199;-60
2023/04/01 01:30:31;;;;;;;1.60;0.77;;;5.10;99.90;;;;;;2074424;28;20182;-60
2023/04/01 01:31:56;;;;;;;6.13;5.65;;;5.10;99.90;;;;;;2053948;28;20237;-61
2023/04/01 01:33:18;;;;;;;1.63;0.85;;;5.10;99.90;;;;;;2077481;28;20196;-60
2023/04/01 01:34:34;;;;;;;2.53;0.50;;;5.10;99.90;;;;;;2077933;28;20661;-63
2023/04/01 01:35:52;;;;;;;1.45;1.35;;;5.00;99.90;;;;;;2078238;28;20181;-59
2023/04/01 01:37:05;;;;;;;2.90;0.65;;;5.00;99.90;;;;;;2078202;28;20196;-58
2023/04/01 01:38:32;;;;;;;2.15;2.03;;;5.00;99.90;;;;;;2077963;28;20246;-60
2023/04/01 01:39:41;;;;;;;0.95;0.95;;;5.00;99.90;;;;;;2078785;28;20299;-59
2023/04/01 01:40:53;;;;;;;1.85;0.60;;;5.00;99.90;;;;;;2073183;28;20288;-57
2023/04/01 01:42:05;;;;;;;3.17;2.95;;;5.00;99.90;;;;;;2079827;28;20180;-61
2023/04/01 01:43:14;;;;;;;10.23;9.55;;;5.10;99.90;;;;;;2077160;28;20223;-59
2023/04/01 01:44:22;;;;;;;1.35;0.95;;;5.00;99.90;;;;;;2074026;28;20326;-58
2023/04/01 01:45:28;;;;;;;1.77;0.60;;;5.00;99.90;;;;;;2077346;28;20181;-60
2023/04/01 01:46:35;;;;;;;3.13;0.60;;;5.00;99.90;;;;;;2077433;28;20180;-60
2023/04/01 01:47:42;;;;;;;3.03;0.70;;;5.00;99.90;;;;;;2071932;28;20261;-59
2023/04/01 01:48:50;;;;;;;0.90;0.68;;;5.00;99.90;;;;;;2077843;28;20248;-61
2023/04/01 01:49:56;;;;;;;2.33;0.80;;;5.20;99.90;;;;;;2077428;28;20385;-60
2023/04/01 01:51:05;;;;;;;2.35;1.15;;;5.20;99.90;;;;;;2077073;28;20209;-60
2023/04/01 01:52:11;;;;;;;3.40;0.90;;;5.20;99.90;;;;;;2076689;28;20189;-61
2023/04/01 01:53:16;;;;;;;5.68;5.28;;;5.10;99.90;;;;;;2077420;28;20272;-60
2023/04/01 01:54:22;;;;;;;2.60;1.17;;;5.10;99.90;;;;;;2077552;28;20213;-60
2023/04/01 01:55:37;;;;;;;5.78;3.75;;;5.00;99.90;;;;;;2078124;28;20883;-59
2023/04/01 01:56:48;;;;;;;2.00;1.90;;;5.00;99.90;;;;;;2078072;28;20195;-59
2023/04/01 01:57:59;;;;;;;0.45;0.45;;;4.90;99.90;;;;;;2077545;28;20545;-60
2023/04/01 01:59:10;;;;;;;1.85;1.73;;;4.80;99.90;;;;;;2077474;28;20663;-59
2023/04/01 02:00:17;;;;;;;4.63;3.30;;;4.80;99.90;;;;;;2077028;28;20181;-58
2023/04/01 02:01:26;;;;;;;1.58;1.13;;;4.80;99.90;;;;;;2076402;28;20193;-60
2023/04/01 02:02:32;;;;;;;12.15;11.45;;;4.80;99.90;;;;;;2077076;28;20215;-58
2023/04/01 02:03:40;;;;;;;1.58;1.38;;;4.90;99.90;;;;;;2077036;28;20197;-58
2023/04/01 02:04:47;;;;;;;3.92;1.05;;;4.90;99.90;;;;;;2077211;28;20185;-59
2023/04/01 02:05:56;;;;;;;5.13;4.75;;;4.90;99.90;;;;;;2076962;28;20785;-60
2023/04/01 02:07:06;;;;;;;2.60;1.02;;;4.90;99.90;;;;;;2077058;28;20192;-61
2023/04/01 02:08:20;;;;;;;1.48;1.00;;;4.90;99.90;;;;;;2076995;28;20189;-57
2023/04/01 02:09:26;;;;;;;5.90;5.50;;;5.00;99.90;;;;;;2075801;28;20187;-60
2023/04/01 02:10:37;;;;;;;8.20;7.45;;;5.00;99.90;;;;;;2077163;28;20272;-59
2023/04/01 02:11:51;;;;;;;23.13;21.67;;;5.00;99.90;;;;;;2070506;28;20216;-61
2023/04/01 02:13:02;;;;;;;5.43;5.03;;;5.00;99.90;;;;;;2073061;28;20185;-60
2023/04/01 02:14:14;;;;;;;2.80;1.30;;;5.00;99.90;;;;;;2069209;28;20291;-61
2023/04/01 02:15:21;;;;;;;20.52;19.20;;;5.00;99.90;;;;;;2079317;28;20188;-56
2023/04/01 02:16:53;;;;;;;10.90;10.23;;;5.10;99.90;;;;;;2077078;28;20218;-60
2023/04/01 02:17:59;;;;;;;3.03;2.83;;;5.10;99.90;;;;;;2076839;28;20636;-60
2023/04/01 02:19:07;;;;;;;23.75;22.02;;;5.10;99.90;;;;;;2077046;28;20207;-58
2023/04/01 02:20:22;;;;;;;22.00;20.15;;;5.10;99.90;;;;;;2076693;28;20190;-61
2023/04/01 02:21:32;;;;;;;5.38;1.67;;;5.10;99.90;;;;;;2076309;28;20181;-60
2023/04/01 02:22:44;;;;;;;3.92;3.45;;;5.10;99.90;;;;;;2076893;28;20179;-59
2023/04/01 02:23:53;;;;;;;7.55;6.95;;;5.10;99.90;;;;;;2078652;28;20205;-60
2023/04/01 02:25:08;;;;;;;15.70;14.60;;;5.10;99.90;;;;;;2074534;28;20201;-61
2023/04/01 02:26:11;;;;;;;7.57;3.30;;;5.10;99.90;;;;;;2075056;28;20220;-60
2023/04/01 02:27:17;;;;;;;3.05;1.40;;;5.10;99.90;;;;;;2077314;28;20184;-60
2023/04/01 02:28:24;;;;;;;7.03;6.50;;;5.10;99.90;;;;;;2076868;28;20199;-60
2023/04/01 02:29:31;;;;;;;8.65;8.05;;;5.10;99.90;;;;;;2065116;28;20239;-59
2023/04/01 02:30:40;;;;;;;5.00;1.20;;;5.10;99.90;;;;;;2073362;28;20202;-60
2023/04/01 02:31:46;;;;;;;20.98;19.65;;;5.10;99.90;;;;;;2071110;28;20193;-59
2023/04/01 02:32:52;;;;;;;12.40;11.20;;;5.00;99.90;;;;;;2072419;28;20193;-60
2023/04/01 02:33:58;;;;;;;7.38;6.78;;;5.10;99.90;;;;;;2076965;28;20743;-60
2023/04/01 02:35:11;;;;;;;5.45;4.25;;;5.10;99.90;;;;;;2077546;28;20185;-59
2023/04/01 02:36:17;;;;;;;4.93;4.50;;;5.10;99.90;;;;;;2076598;28;20752;-59
2023/04/01 02:37:23;;;;;;;4.90;4.47;;;5.10;99.90;;;;;;2070160;28;20273;-60
2023/04/01 02:38:29;;;;;;;8.13;7.40;;;5.20;99.90;;;;;;2076374;28;20194;-59
2023/04/01 02:39:35;;;;;;;16.83;15.20;;;5.30;99.90;;;;;;2077932;28;20194;-60
2023/04/01 02:40:44;;;;;;;2.80;2.55;;;5.30;99.90;;;;;;2077473;28;20229;-61
2023/04/01 02:41:50;;;;;;;8.23;7.53;;;5.30;99.90;;;;;;2077504;28;20177;-61
2023/04/01 02:42:56;;;;;;;4.10;3.35;;;5.30;99.90;;;;;;2077411;28;20269;-60
2023/04/01 02:44:02;;;;;;;11.30;10.52;;;5.20;99.90;;;;;;2077405;28;20266;-60
2023/04/01 02:45:05;;;;;;;1.80;0.70;;;5.20;99.90;;;;;;2077270;28;20691;-60
2023/04/01 02:46:08;;;;;;;4.05;3.78;;;5.10;99.90;;;;;;2075707;28;20264;-61
2023/04/01 02:47:14;;;;;;;3.80;1.00;;;5.10;99.90;;;;;;2077612;28;20185;-60
2023/04/01 02:48:20;;;;;;;1.85;0.80;;;5.10;99.90;;;;;;2074261;28;20193;-59
2023/04/01 02:49:26;;;;;;;3.28;0.98;;;5.10;99.90;;;;;;2077562;28;20264;-59
2023/04/01 02:50:32;;;;;;;2.08;1.52;;;5.10;99.90;;;;;;2077117;28;20185;-59
2023/04/01 02:51:37;;;;;;;2.17;0.88;;;5.20;99.90;;;;;;2078016;28;20614;-59
2023/04/01 02:52:43;;;;;;;1.35;0.80;;;5.10;99.90;;;;;;2075904;28;20575;-60
2023/04/01 02:53:49;;;;;;;1.90;1.20;;;5.20;99.90;;;;;;2077177;28;20630;-60
2023/04/01 02:54:56;;;;;;;3.95;2.80;;;5.20;99.90;;;;;;2077068;28;20224;-60
2023/04/01 02:56:02;;;;;;;3.22;1.13;;;5.20;99.90;;;;;;2077362;28;20220;-59
2023/04/01 02:57:04;;;;;;;1.83;1.35;;;5.10;99.90;;;;;;2076897;28;20177;-59
2023/04/01 02:58:09;;;;;;;1.95;0.70;;;5.10;99.90;;;;;;2077372;28;20247;-59
2023/04/01 02:59:15;;;;;;;3.33;1.77;;;5.20;99.90;;;;;;2077242;28;20690;-59
2023/04/01 03:00:21;;;;;;;1.33;0.77;;;5.20;99.90;;;;;;2077602;28;20221;-59
2023/04/01 03:01:27;;;;;;;2.53;2.33;;;5.20;99.90;;;;;;2076772;28;20170;-61
2023/04/01 03:02:33;;;;;;;2.50;2.33;;;5.10;99.90;;;;;;2077531;28;20235;-59
2023/04/01 03:03:38;;;;;;;9.05;8.20;;;5.10;99.90;;;;;;2077032;28;20189;-60
2023/04/01 03:04:44;;;;;;;4.05;2.97;;;5.10;99.90;;;;;;2077263;28;20177;-60
2023/04/01 03:05:50;;;;;;;3.88;0.80;;;5.10;99.90;;;;;;2077143;28;20189;-59
2023/04/01 03:06:56;;;;;;;1.67;0.82;;;5.10;99.90;;;;;;2077000;28;20218;-60
2023/04/01 03:08:03;;;;;;;3.78;1.10;;;5.10;99.90;;;;;;2077078;28;20177;-61
2023/04/01 03:09:04;;;;;;;3.03;0.90;;;5.10;99.90;;;;;;2076824;28;20323;-60
2023/04/01 03:10:06;;;;;;;3.87;1.03;;;5.10;99.90;;;;;;2076362;28;20601;-57
2023/04/01 03:11:10;;;;;;;1.02;0.73;;;5.10;99.90;;;;;;2076866;28;20681;-61
2023/04/01 03:12:16;;;;;;;1.55;0.50;;;5.20;99.90;;;;;;2078149;28;20200;-59
2023/04/01 03:13:21;;;;;;;7.25;6.70;;;5.20;99.90;;;;;;2080410;28;20189;-61
2023/04/01 03:14:27;;;;;;;2.55;0.70;;;5.30;99.90;;;;;;2080621;28;20238;-61
2023/04/01 03:15:33;;;;;;;4.85;1.80;;;5.20;99.90;;;;;;2077183;28;20199;-59
2023/04/01 03:16:39;;;;;;;3.70;3.42;;;5.10;99.90;;;;;;2079583;28;20185;-60
2023/04/01 03:17:46;;;;;;;5.07;4.00;;;5.10;99.90;;;;;;2077182;28;20178;-60
2023/04/01 03:18:52;;;;;;;2.38;1.63;;;5.00;99.90;;;;;;2077777;28;20208;-61
2023/04/01 03:19:58;;;;;;;1.27;1.10;;;5.00;99.90;;;;;;2077578;28;20271;-59
2023/04/01 03:21:14;;;;;;;5.35;5.13;;;5.00;99.90;;;;;;2077499;28;20655;-60
2023/04/01 03:22:20;;;;;;;2.88;1.33;;;5.00;99.90;;;;;;2076931;28;20414;-61
2023/04/01 03:23:26;;;;;;;4.28;3.95;;;5.00;99.90;;;;;;2077252;28;20749;-59
2023/04/01 03:24:32;;;;;;;2.47;2.28;;;5.00;99.90;;;;;;2077568;28;20222;-57
2023/04/01 03:25:38;;;;;;;1.05;0.60;;;5.00;99.90;;;;;;2077509;28;20655;-60
2023/04/01 03:26:43;;;;;;;1.77;1.73;;;5.00;99.90;;;;;;2077610;28;20216;-59
2023/04/01 03:27:49;;;;;;;19.15;17.88;;;4.90;99.90;;;;;;2077276;28;20173;-60
2023/04/01 03:28:56;;;;;;;4.60;4.35;;;4.90;99.90;;;;;;2077111;28;20240;-59
2023/04/01 03:30:04;;;;;;;16.25;15.23;;;4.80;99.90;;;;;;2077185;28;20724;-60
2023/04/01 03:31:10;;;;;;;4.78;4.43;;;4.80;99.90;;;;;;2076906;28;20196;-59
2023/04/01 03:32:16;;;;;;;4.90;4.65;;;4.80;99.90;;;;;;2076579;28;20189;-56
2023/04/01 03:33:22;;;;;;;3.38;3.20;;;4.80;99.90;;;;;;2076960;28;20201;-60
2023/04/01 03:34:27;;;;;;;10.32;9.70;;;4.70;99.90;;;;;;2076770;28;20223;-58
2023/04/01 03:35:35;;;;;;;12.63;11.88;;;4.60;99.90;;;;;;2077220;28;20192;-57
2023/04/01 03:36:41;;;;;;;1.73;0.70;;;4.60;99.90;;;;;;2076977;28;20213;-59
2023/04/01 03:37:47;;;;;;;20.35;19.25;;;4.50;99.90;;;;;;2077058;28;20276;-56
2023/04/01 03:38:52;;;;;;;0.55;0.55;;;4.50;99.90;;;;;;2077088;28;20196;-59
2023/04/01 03:39:58;;;;;;;8.68;8.27;;;4.50;99.90;;;;;;2077183;28;20249;-60
2023/04/01 03:41:04;;;;;;;1.10;0.60;;;4.50;99.90;;;;;;2076782;28;20234;-58
2023/04/01 03:42:09;;;;;;;0.70;0.70;;;4.50;99.90;;;;;;2076554;28;20196;-60
2023/04/01 03:43:16;;;;;;;0.30;0.30;;;4.50;99.90;;;;;;2076611;28;20186;-58
2023/04/01 03:44:22;;;;;;;4.38;2.55;;;4.50;99.90;;;;;;2077368;28;20225;-61
2023/04/01 03:45:27;;;;;;;1.98;1.95;;;4.60;99.90;;;;;;2077407;28;20745;-59
2023/04/01 03:46:33;;;;;;;7.55;1.25;;;4.60;99.90;;;;;;2077272;28;20190;-59
2023/04/01 03:47:39;;;;;;;7.90;7.43;;;4.60;99.90;;;;;;2077621;28;20176;-59
2023/04/01 03:48:45;;;;;;;1.25;0.50;;;4.50;99.90;;;;;;2076849;28;20299;-59
2023/04/01 03:49:51;;;;;;;0.70;0.70;;;4.50;99.90;;;;;;2075387;28;20166;-60
2023/04/01 03:50:57;;;;;;;4.45;4.25;;;4.50;99.90;;;;;;2076595;28;20200;-59
2023/04/01 03:52:03;;;;;;;1.92;1.88;;;4.50;99.90;;;;;;2076528;28;20177;-60
2023/04/01 03:53:04;;;;;;;2.13;2.03;;;4.50;99.90;;;;;;2076740;28;20257;-59
2023/04/01 03:54:10;;;;;;;4.40;4.20;;;4.50;99.90;;;;;;2076754;28;20221;-57
2023/04/01 03:55:17;;;;;;;2.53;2.42;;;4.50;99.90;;;;;;2076846;28;20677;-61
2023/04/01 03:56:23;;;;;;;3.97;3.78;;;4.50;99.90;;;;;;2079716;28;20192;-60
2023/04/01 03:57:31;;;;;;;1.92;1.83;;;4.50;99.90;;;;;;2076806;28;20201;-60
2023/04/01 03:58:38;;;;;;;1.45;1.35;;;4.50;99.90;;;;;;2077367;28;20190;-59
2023/04/01 03:59:44;;;;;;;2.05;0.70;;;4.50;99.90;;;;;;2077202;28;20193;-58
2023/04/01 04:00:50;;;;;;;0.50;0.50;;;4.50;99.90;;;;;;2077362;28;20285;-60
2023/04/01 04:01:55;;;;;;;14.27;13.52;;;4.50;99.90;;;;;;2076315;28;20188;-59
2023/04/01 04:03:01;;;;;;;1.05;1.05;;;4.50;99.90;;;;;;2076867;28;20177;-60
2023/04/01 04:04:05;;;;;;;1.90;1.85;;;4.50;99.90;;;;;;2076853;28;20220;-59
2023/04/01 04:05:10;;;;;;;0.60;0.30;;;4.50;99.90;;;;;;2076842;28;20181;-60
2023/04/01 04:06:18;;;;;;;0.60;0.60;;;4.50;99.90;;;;;;2076990;28;20697;-60
2023/04/01 04:07:24;;;;;;;1.17;0.50;;;4.50;99.90;;;;;;2076732;28;20185;-60
2023/04/01 04:08:30;;;;;;;0.32;0.32;;;4.60;99.90;;;;;;2076919;28;20213;-60
2023/04/01 04:09:35;;;;;;;1.17;0.60;;;4.60;99.90;;;;;;2076725;28;20274;-59
2023/04/01 04:10:42;;;;;;;0.35;0.35;;;4.60;99.90;;;;;;2076690;28;20618;-60
2023/04/01 04:11:49;;;;;;;1.58;0.40;;;4.70;99.90;;;;;;2076012;28;20197;-58
2023/04/01 04:12:55;;;;;;;0.55;0.50;;;4.60;99.90;;;;;;2076964;28;20239;-60
2023/04/01 04:14:02;;;;;;;0.75;0.75;;;4.60;99.90;;;;;;2076817;28;20216;-59
2023/04/01 04:15:05;;;;;;;0.60;0.60;;;4.60;99.90;;;;;;2076792;28;20193;-59
2023/04/01 04:16:10;;;;;;;4.43;0.75;;;4.50;99.90;;;;;;2076692;28;20251;-59
2023/04/01 04:17:16;;;;;;;7.43;6.93;;;4.50;99.90;;;;;;2077159;28;20276;-61
2023/04/01 04:18:22;;;;;;;9.68;9.13;;;4.50;99.90;;;;;;2077218;28;20202;-61
2023/04/01 04:19:33;;;;;;;28.85;27.25;;;4.50;99.90;;;;;;2077260;28;20235;-60
2023/04/01 04:20:47;;;;;;;11.85;11.10;;;4.50;99.90;;;;;;2076590;28;20620;-60
2023/04/01 04:21:52;;;;;;;14.25;13.55;;;4.60;99.90;;;;;;2075800;28;20842;-58
2023/04/01 04:23:00;;;;;;;20.00;18.90;;;4.60;99.90;;;;;;2076867;28;20193;-61
2023/04/01 04:24:05;;;;;;;6.80;6.45;;;4.60;99.90;;;;;;2076935;28;20274;-61
2023/04/01 04:25:09;;;;;;;3.83;3.53;;;4.60;99.90;;;;;;2077288;28;20189;-60
2023/04/01 04:26:15;;;;;;;8.77;8.30;;;4.60;99.90;;;;;;2076673;28;20188;-61
2023/04/01 04:27:21;;;;;;;2.55;0.98;;;4.60;99.90;;;;;;2076272;28;20173;-59
2023/04/01 04:28:28;;;;;;;1.67;0.98;;;4.70;99.90;;;;;;2076190;28;20267;-60
2023/04/01 04:29:34;;;;;;;2.78;2.58;;;4.60;99.90;;;;;;2076815;28;20267;-60
2023/04/01 04:30:39;;;;;;;5.57;5.28;;;4.60;99.90;;;;;;2076583;28;20274;-59
2023/04/01 04:31:45;;;;;;;2.35;2.15;;;4.70;99.90;;;;;;2075872;28;20193;-59
2023/04/01 04:32:51;;;;;;;1.98;1.83;;;4.70;99.90;;;;;;2076353;28;20208;-59
2023/04/01 04:34:00;;;;;;;5.05;4.75;;;4.70;99.90;;;;;;2076407;28;20200;-61
2023/04/01 04:35:06;;;;;;;2.78;2.60;;;4.70;99.90;;;;;;2076502;28;20710;-61
2023/04/01 04:36:09;;;;;;;3.00;2.83;;;4.70;99.90;;;;;;2074801;28;20213;-61
2023/04/01 04:37:15;;;;;;;3.63;0.50;;;4.70;99.90;;;;;;2076518;28;20726;-59
2023/04/01 04:38:21;;;;;;;3.58;3.25;;;4.80;99.90;;;;;;2077057;28;20180;-58
2023/04/01 04:39:26;;;;;;;9.98;1.48;;;4.70;99.90;;;;;;2076650;28;20200;-59
2023/04/01 04:40:32;;;;;;;2.65;0.77;;;4.70;99.90;;;;;;2080015;28;20243;-59
2023/04/01 04:41:38;;;;;;;1.33;1.27;;;4.70;99.90;;;;;;2076131;28;20713;-58
2023/04/01 04:42:44;;;;;;;2.83;1.55;;;4.80;99.90;;;;;;2076771;28;20182;-60
2023/04/01 04:43:55;;;;;;;2.90;2.53;;;4.80;99.90;;;;;;2076629;28;20267;-60
2023/04/01 04:45:01;;;;;;;3.17;2.38;;;4.90;99.90;;;;;;2076329;28;20185;-57
2023/04/01 04:46:10;;;;;;;5.38;4.97;;;4.80;99.90;;;;;;2076669;28;20201;-59
2023/04/01 04:47:15;;;;;;;4.50;4.13;;;4.80;99.90;;;;;;2075723;28;20178;-60
2023/04/01 04:48:21;;;;;;;4.03;3.83;;;4.70;99.90;;;;;;2075864;28;20185;-60
2023/04/01 04:49:27;;;;;;;20.75;19.67;;;4.70;99.90;;;;;;2076385;28;20184;-62
2023/04/01 04:50:33;;;;;;;0.70;0.68;;;4.70;99.90;;;;;;2076498;28;20583;-59
2023/04/01 04:51:38;;;;;;;1.85;0.63;;;4.70;99.90;;;;;;2075684;28;20223;-60
2023/04/01 04:52:44;;;;;;;3.47;3.28;;;4.70;99.90;;;;;;2076742;28;20913;-60
2023/04/01 04:53:50;;;;;;;4.38;2.45;;;4.80;99.90;;;;;;2077001;28;20217;-58
2023/04/01 04:54:56;;;;;;;3.75;3.53;;;4.80;99.90;;;;;;2077049;28;20192;-60
2023/04/01 04:56:02;;;;;;;0.93;0.70;;;4.80;99.90;;;;;;2078679;28;20189;-60
2023/04/01 04:57:04;;;;;;;1.65;1.15;;;4.80;99.90;;;;;;2076513;28;20717;-60
2023/04/01 04:58:10;;;;;;;2.10;2.00;;;4.70;99.90;;;;;;2076571;28;20189;-59
2023/04/01 04:59:15;;;;;;;5.13;4.88;;;4.70;99.90;;;;;;2076975;28;20197;-60
2023/04/01 05:00:21;;;;;;;1.90;1.70;;;4.80;99.90;;;;;;2077144;28;20205;-59
2023/04/01 05:01:27;;;;;;;0.88;0.60;;;4.70;99.90;;;;;;2075525;28;20514;-60
2023/04/01 05:02:34;;;;;;;7.28;6.95;;;4.70;99.90;;;;;;2077799;28;20565;-60
2023/04/01 05:03:40;;;;;;;2.30;0.50;;;4.80;99.90;;;;;;2077627;28;20185;-58
2023/04/01 05:04:46;;;;;;;0.50;0.50;;;4.80;99.90;;;;;;2078612;28;20188;-59
2023/04/01 05:05:53;;;;;;;1.45;1.40;;;4.80;99.90;;;;;;2078459;28;20613;-59
2023/04/01 05:06:59;;;;;;;0.77;0.77;;;4.90;99.90;;;;;;2077744;28;20685;-60
2023/04/01 05:08:05;;;;;;;5.82;5.55;;;4.80;99.90;;;;;;2079671;28;20189;-60
2023/04/01 05:09:09;;;;;;;1.30;0.93;;;4.80;99.90;;;;;;2078738;28;20201;-61
2023/04/01 05:10:15;;;;;;;3.33;1.05;;;4.80;99.90;;;;;;2077678;28;20310;-60
2023/04/01 05:11:21;;;;;;;8.50;7.68;;;4.80;99.90;;;;;;2082591;28;20188;-61
2023/04/01 05:12:27;;;;;;;7.88;7.35;;;4.80;99.90;;;;;;2083694;28;20186;-62
2023/04/01 05:13:32;;;;;;;4.03;2.50;;;4.80;99.90;;;;;;2080021;28;20738;-60
2023/04/01 05:14:39;;;;;;;2.90;1.00;;;4.80;99.90;;;;;;2078721;28;20193;-59
2023/04/01 05:15:44;;;;;;;2.13;1.80;;;4.70;99.90;;;;;;2077939;28;20184;-60
2023/04/01 05:16:50;;;;;;;15.45;14.55;;;4.70;99.90;;;;;;2080445;28;20613;-59
2023/04/01 05:17:56;;;;;;;2.30;2.15;;;4.80;99.90;;;;;;2078654;28;20195;-59
2023/04/01 05:19:01;;;;;;;3.72;1.00;;;4.80;99.90;;;;;;2079250;28;20250;-59
2023/04/01 05:20:07;;;;;;;6.38;0.70;;;4.80;99.90;;;;;;2078654;28;20694;-60
2023/04/01 05:21:12;;;;;;;0.98;0.80;;;4.80;99.90;;;;;;2074790;28;20200;-59
2023/04/01 05:22:18;;;;;;;2.28;0.90;;;4.80;99.90;;;;;;2075600;28;20236;-61
2023/04/01 05:23:24;;;;;;;2.10;1.45;;;4.80;99.90;;;;;;2078522;28;20195;-59
2023/04/01 05:24:30;;;;;;;1.48;1.38;;;4.90;99.90;;;;;;2077678;28;20287;-59
2023/04/01 05:25:38;;;;;;;0.98;0.57;;;4.90;99.90;;;;;;2076672;28;20178;-59
2023/04/01 05:26:43;;;;;;;0.82;0.55;;;4.90;99.90;;;;;;2078202;28;20257;-59
2023/04/01 05:27:49;;;;;;;1.38;1.25;;;4.90;99.90;;;;;;2077886;28;20642;-59
2023/04/01 05:28:55;;;;;;;0.45;0.40;;;4.90;99.90;;;;;;2078469;28;20272;-60
2023/04/01 05:30:01;;;;;;;1.48;0.90;;;5.00;99.90;;;;;;2078123;28;20212;-59
2023/04/01 05:31:06;;;;;;;0.40;0.40;;;5.00;99.90;;;;;;2077518;28;20223;-60
2023/04/01 05:32:09;;;;;;;4.30;4.10;;;5.00;99.90;;;;;;2077182;28;20193;-60
2023/04/01 05:33:15;;;;;;;0.40;0.40;;;5.00;99.90;;;;;;2077523;28;20709;-60
2023/04/01 05:34:21;;;;;;;1.15;1.15;;;5.00;99.90;;;;;;2078246;28;20224;-61
2023/04/01 05:35:26;;;;;;;0.95;0.60;;;5.00;99.90;;;;;;2077538;28;20240;-61
2023/04/01 05:36:32;;;;;;;0.93;0.70;;;5.00;99.90;;;;;;2077563;28;20279;-60
2023/04/01 05:37:38;;;;;;;1.23;0.93;;;5.00;99.90;;;;;;2077629;28;20182;-61
2023/04/01 05:38:45;;;;;;;2.38;1.00;;;5.00;99.90;;;;;;2077982;28;20658;-59
2023/04/01 05:39:51;;;;;;;1.98;0.60;;;5.00;99.90;;;;;;2077920;28;20277;-61
2023/04/01 05:41:02;;;;;;;8.00;7.60;;;5.00;99.90;;;;;;2078272;28;20690;-61
2023/04/01 05:42:07;;;;;;;16.52;15.65;;;5.00;99.90;;;;;;2076322;28;20251;-61
2023/04/01 05:43:09;;;;;;;2.50;2.35;;;4.90;99.90;;;;;;2076824;28;20698;-61
2023/04/01 05:44:15;;;;;;;8.80;8.27;;;5.00;99.90;;;;;;2077756;28;20241;-61
2023/04/01 05:45:21;;;;;;;0.95;0.60;;;5.00;99.90;;;;;;2077962;28;20609;-61
2023/04/01 05:46:27;;;;;;;3.67;3.45;;;5.00;99.90;;;;;;2078238;28;20231;-60
2023/04/01 05:47:33;;;;;;;11.38;10.45;;;5.00;99.90;;;;;;2077399;28;20189;-61
2023/04/01 05:48:39;;;;;;;1.35;1.23;;;4.90;99.90;;;;;;2077535;28;20181;-60
2023/04/01 05:49:44;;;;;;;1.92;0.80;;;4.90;99.90;;;;;;2077460;28;20186;-61
2023/04/01 05:50:50;;;;;;;6.03;5.00;;;5.00;99.90;;;;;;2078116;28;20193;-61
2023/04/01 05:51:56;;;;;;;14.40;13.38;;;5.00;99.90;;;;;;2077555;28;20188;-59
2023/04/01 05:53:02;;;;;;;3.22;1.27;;;5.00;99.90;;;;;;2077531;28;20201;-61
2023/04/01 05:54:05;;;;;;;11.70;10.95;;;5.00;99.90;;;;;;2078919;28;20312;-61
2023/04/01 05:55:09;;;;;;;1.90;0.65;;;4.80;99.90;;;;;;2078220;28;20746;-61
2023/04/01 05:56:15;;;;;;;8.15;7.63;;;5.10;99.90;;;;;;2077443;28;20603;-61
2023/04/01 05:57:21;;;;;;;5.60;5.30;;;5.10;99.90;;;;;;2077437;28;20216;-61
2023/04/01 05:58:26;;;;;;;2.42;1.83;;;5.10;99.90;;;;;;2077259;28;20197;-61